sensor_id;sensor_type;location;lat;lon;timestamp;P1;durP1;ratioP1;P2;durP2;ratioP2
61617;SDS011;47518;51.776;9.370;2022-12-07T00:01:20;22.13;;;13.30;;
61617;SDS011;47518;51.776;9.370;2022-12-07T00:03:48;21.02;;;12.80;;
61617;SDS011;47518;51.776;9.370;2022-12-07T00:06:16;21.33;;;12.93;;
61617;SDS011;47518;51.776;9.370;2022-12-07T00:08:42;24.10;;;12.82;;
61617;SDS011;47518;51.776;9.370;2022-12-07T00:11:08;21.83;;;13.43;;
61617;SDS011;47518;51.776;9.370;2022-12-07T00:13:36;22.85;;;12.70;;
61617;SDS011;47518;51.776;9.370;2022-12-07T00:18:39;21.30;;;12.70;;
61617;SDS011;47518;51.776;9.370;2022-12-07T00:21:07;21.40;;;12.68;;
61617;SDS011;47518;51.776;9.370;2022-12-07T00:23:37;20.98;;;12.45;;
61617;SDS011;47518;51.776;9.370;2022-12-07T00:26:04;22.02;;;13.00;;
61617;SDS011;47518;51.776;9.370;2022-12-07T00:28:31;21.10;;;12.13;;
61617;SDS011;47518;51.776;9.370;2022-12-07T00:31:00;19.20;;;11.77;;
61617;SDS011;47518;51.776;9.370;2022-12-07T00:33:28;21.40;;;12.93;;
61617;SDS011;47518;51.776;9.370;2022-12-07T00:35:55;18.75;;;11.73;;
61617;SDS011;47518;51.776;9.370;2022-12-07T00:38:21;19.80;;;12.07;;
61617;SDS011;47518;51.776;9.370;2022-12-07T00:40:53;18.88;;;11.40;;
61617;SDS011;47518;51.776;9.370;2022-12-07T00:43:21;20.50;;;12.18;;
61617;SDS011;47518;51.776;9.370;2022-12-07T00:45:47;19.75;;;11.75;;
61617;SDS011;47518;51.776;9.370;2022-12-07T00:48:12;19.77;;;11.85;;
61617;SDS011;47518;51.776;9.370;2022-12-07T00:50:37;19.75;;;11.68;;
61617;SDS011;47518;51.776;9.370;2022-12-07T00:53:02;19.90;;;11.50;;
61617;SDS011;47518;51.776;9.370;2022-12-07T00:55:28;17.08;;;11.40;;
61617;SDS011;47518;51.776;9.370;2022-12-07T00:57:53;19.10;;;11.63;;
61617;SDS011;47518;51.776;9.370;2022-12-07T01:00:18;19.92;;;12.23;;
61617;SDS011;47518;51.776;9.370;2022-12-07T01:02:44;18.05;;;12.38;;
61617;SDS011;47518;51.776;9.370;2022-12-07T01:05:09;22.15;;;12.50;;
61617;SDS011;47518;51.776;9.370;2022-12-07T01:07:34;19.95;;;12.40;;
61617;SDS011;47518;51.776;9.370;2022-12-07T01:09:59;20.88;;;12.35;;
61617;SDS011;47518;51.776;9.370;2022-12-07T01:12:25;22.35;;;13.25;;
61617;SDS011;47518;51.776;9.370;2022-12-07T01:14:50;25.63;;;13.20;;
61617;SDS011;47518;51.776;9.370;2022-12-07T01:17:15;19.27;;;11.90;;
61617;SDS011;47518;51.776;9.370;2022-12-07T01:19:40;23.45;;;14.02;;
61617;SDS011;47518;51.776;9.370;2022-12-07T01:22:06;24.63;;;14.27;;
61617;SDS011;47518;51.776;9.370;2022-12-07T01:24:31;24.13;;;13.60;;
61617;SDS011;47518;51.776;9.370;2022-12-07T01:26:56;21.58;;;13.07;;
61617;SDS011;47518;51.776;9.370;2022-12-07T01:29:22;22.27;;;13.77;;
61617;SDS011;47518;51.776;9.370;2022-12-07T01:31:48;21.85;;;12.93;;
61617;SDS011;47518;51.776;9.370;2022-12-07T01:34:14;23.35;;;13.02;;
61617;SDS011;47518;51.776;9.370;2022-12-07T01:36:39;25.05;;;13.57;;
61617;SDS011;47518;51.776;9.370;2022-12-07T01:39:06;23.58;;;13.82;;
61617;SDS011;47518;51.776;9.370;2022-12-07T01:41:33;23.10;;;14.02;;
61617;SDS011;47518;51.776;9.370;2022-12-07T01:46:49;22.15;;;13.50;;
61617;SDS011;47518;51.776;9.370;2022-12-07T01:49:17;26.75;;;14.55;;
61617;SDS011;47518;51.776;9.370;2022-12-07T01:51:57;24.13;;;12.80;;
61617;SDS011;47518;51.776;9.370;2022-12-07T01:54:28;23.13;;;13.43;;
61617;SDS011;47518;51.776;9.370;2022-12-07T01:56:54;21.88;;;13.55;;
61617;SDS011;47518;51.776;9.370;2022-12-07T01:59:23;23.85;;;14.23;;
61617;SDS011;47518;51.776;9.370;2022-12-07T02:01:50;25.42;;;14.48;;
61617;SDS011;47518;51.776;9.370;2022-12-07T02:04:16;25.65;;;13.90;;
61617;SDS011;47518;51.776;9.370;2022-12-07T02:06:43;23.90;;;14.35;;
61617;SDS011;47518;51.776;9.370;2022-12-07T02:09:09;25.50;;;15.00;;
61617;SDS011;47518;51.776;9.370;2022-12-07T02:11:35;25.85;;;15.00;;
61617;SDS011;47518;51.776;9.370;2022-12-07T02:14:00;22.55;;;13.45;;
61617;SDS011;47518;51.776;9.370;2022-12-07T02:21:59;24.30;;;14.27;;
61617;SDS011;47518;51.776;9.370;2022-12-07T02:24:48;23.65;;;13.85;;
61617;SDS011;47518;51.776;9.370;2022-12-07T02:30:17;22.85;;;14.02;;
61617;SDS011;47518;51.776;9.370;2022-12-07T02:33:03;26.17;;;14.88;;
61617;SDS011;47518;51.776;9.370;2022-12-07T02:35:33;24.00;;;14.32;;
61617;SDS011;47518;51.776;9.370;2022-12-07T02:40:54;26.70;;;14.30;;
61617;SDS011;47518;51.776;9.370;2022-12-07T02:43:26;23.67;;;14.27;;
61617;SDS011;47518;51.776;9.370;2022-12-07T02:45:57;26.15;;;14.40;;
61617;SDS011;47518;51.776;9.370;2022-12-07T02:48:27;24.38;;;13.93;;
61617;SDS011;47518;51.776;9.370;2022-12-07T02:50:53;22.88;;;13.68;;
61617;SDS011;47518;51.776;9.370;2022-12-07T02:58:49;23.17;;;14.23;;
61617;SDS011;47518;51.776;9.370;2022-12-07T03:01:27;23.77;;;14.45;;
61617;SDS011;47518;51.776;9.370;2022-12-07T03:04:02;24.63;;;14.50;;
61617;SDS011;47518;51.776;9.370;2022-12-07T03:06:42;23.50;;;14.10;;
61617;SDS011;47518;51.776;9.370;2022-12-07T03:09:15;26.38;;;15.80;;
61617;SDS011;47518;51.776;9.370;2022-12-07T03:11:49;25.48;;;14.73;;
61617;SDS011;47518;51.776;9.370;2022-12-07T03:14:22;24.52;;;14.77;;
61617;SDS011;47518;51.776;9.370;2022-12-07T03:16:58;22.98;;;14.35;;
61617;SDS011;47518;51.776;9.370;2022-12-07T03:19:31;23.27;;;14.40;;
61617;SDS011;47518;51.776;9.370;2022-12-07T03:22:00;24.05;;;14.95;;
61617;SDS011;47518;51.776;9.370;2022-12-07T03:24:33;23.45;;;13.90;;
61617;SDS011;47518;51.776;9.370;2022-12-07T03:27:13;22.98;;;14.20;;
61617;SDS011;47518;51.776;9.370;2022-12-07T03:29:47;23.42;;;14.48;;
61617;SDS011;47518;51.776;9.370;2022-12-07T03:32:21;27.42;;;13.77;;
61617;SDS011;47518;51.776;9.370;2022-12-07T03:35:01;26.40;;;13.98;;
61617;SDS011;47518;51.776;9.370;2022-12-07T03:37:50;20.70;;;12.52;;
61617;SDS011;47518;51.776;9.370;2022-12-07T03:43:25;21.67;;;12.05;;
61617;SDS011;47518;51.776;9.370;2022-12-07T03:45:56;19.15;;;12.10;;
61617;SDS011;47518;51.776;9.370;2022-12-07T03:48:32;24.33;;;12.65;;
61617;SDS011;47518;51.776;9.370;2022-12-07T03:51:06;21.27;;;12.65;;
61617;SDS011;47518;51.776;9.370;2022-12-07T03:53:40;20.27;;;11.77;;
61617;SDS011;47518;51.776;9.370;2022-12-07T03:56:08;17.85;;;10.93;;
61617;SDS011;47518;51.776;9.370;2022-12-07T03:58:35;19.05;;;11.35;;
61617;SDS011;47518;51.776;9.370;2022-12-07T04:01:02;17.95;;;11.68;;
61617;SDS011;47518;51.776;9.370;2022-12-07T04:03:27;18.38;;;11.40;;
61617;SDS011;47518;51.776;9.370;2022-12-07T04:05:53;21.52;;;11.63;;
61617;SDS011;47518;51.776;9.370;2022-12-07T04:08:19;16.27;;;10.55;;
61617;SDS011;47518;51.776;9.370;2022-12-07T04:10:44;17.00;;;11.45;;
61617;SDS011;47518;51.776;9.370;2022-12-07T04:13:10;19.27;;;11.20;;
61617;SDS011;47518;51.776;9.370;2022-12-07T04:15:35;19.15;;;11.13;;
61617;SDS011;47518;51.776;9.370;2022-12-07T04:18:00;15.20;;;10.38;;
61617;SDS011;47518;51.776;9.370;2022-12-07T04:20:25;16.55;;;9.98;;
61617;SDS011;47518;51.776;9.370;2022-12-07T04:22:51;14.82;;;9.57;;
61617;SDS011;47518;51.776;9.370;2022-12-07T04:25:16;17.13;;;9.65;;
61617;SDS011;47518;51.776;9.370;2022-12-07T04:27:41;16.00;;;9.82;;
61617;SDS011;47518;51.776;9.370;2022-12-07T04:30:07;17.05;;;9.48;;
61617;SDS011;47518;51.776;9.370;2022-12-07T04:32:32;17.92;;;9.90;;
61617;SDS011;47518;51.776;9.370;2022-12-07T04:34:58;14.65;;;8.82;;
61617;SDS011;47518;51.776;9.370;2022-12-07T04:37:23;15.88;;;9.05;;
61617;SDS011;47518;51.776;9.370;2022-12-07T04:39:49;13.88;;;9.10;;
61617;SDS011;47518;51.776;9.370;2022-12-07T04:42:14;14.43;;;8.75;;
61617;SDS011;47518;51.776;9.370;2022-12-07T04:44:40;14.40;;;8.68;;
61617;SDS011;47518;51.776;9.370;2022-12-07T04:47:05;13.68;;;8.30;;
61617;SDS011;47518;51.776;9.370;2022-12-07T04:49:30;14.25;;;8.55;;
61617;SDS011;47518;51.776;9.370;2022-12-07T04:51:56;17.42;;;8.82;;
61617;SDS011;47518;51.776;9.370;2022-12-07T04:54:21;13.57;;;8.93;;
61617;SDS011;47518;51.776;9.370;2022-12-07T04:56:46;12.75;;;8.27;;
61617;SDS011;47518;51.776;9.370;2022-12-07T04:59:12;13.07;;;8.10;;
61617;SDS011;47518;51.776;9.370;2022-12-07T05:01:39;12.10;;;7.80;;
61617;SDS011;47518;51.776;9.370;2022-12-07T05:04:05;14.40;;;7.90;;
61617;SDS011;47518;51.776;9.370;2022-12-07T05:06:30;15.90;;;8.38;;
61617;SDS011;47518;51.776;9.370;2022-12-07T05:08:55;15.35;;;8.65;;
61617;SDS011;47518;51.776;9.370;2022-12-07T05:35:39;14.45;;;10.18;;
61617;SDS011;47518;51.776;9.370;2022-12-07T05:38:05;16.23;;;9.52;;
61617;SDS011;47518;51.776;9.370;2022-12-07T05:40:30;15.75;;;9.38;;
61617;SDS011;47518;51.776;9.370;2022-12-07T05:42:56;18.10;;;10.00;;
61617;SDS011;47518;51.776;9.370;2022-12-07T05:45:21;15.25;;;9.52;;
61617;SDS011;47518;51.776;9.370;2022-12-07T05:47:46;17.60;;;9.85;;
61617;SDS011;47518;51.776;9.370;2022-12-07T05:50:11;16.05;;;10.05;;
61617;SDS011;47518;51.776;9.370;2022-12-07T05:52:37;17.13;;;9.57;;
61617;SDS011;47518;51.776;9.370;2022-12-07T05:55:02;13.68;;;8.32;;
61617;SDS011;47518;51.776;9.370;2022-12-07T05:57:27;13.75;;;8.73;;
61617;SDS011;47518;51.776;9.370;2022-12-07T05:59:53;15.38;;;8.18;;
61617;SDS011;47518;51.776;9.370;2022-12-07T06:02:18;12.43;;;7.60;;
61617;SDS011;47518;51.776;9.370;2022-12-07T06:04:44;13.20;;;7.32;;
61617;SDS011;47518;51.776;9.370;2022-12-07T06:07:12;13.25;;;6.28;;
61617;SDS011;47518;51.776;9.370;2022-12-07T06:09:38;8.10;;;5.60;;
61617;SDS011;47518;51.776;9.370;2022-12-07T06:12:04;10.73;;;6.05;;
61617;SDS011;47518;51.776;9.370;2022-12-07T06:14:50;12.63;;;6.20;;
61617;SDS011;47518;51.776;9.370;2022-12-07T06:17:16;12.65;;;6.22;;
61617;SDS011;47518;51.776;9.370;2022-12-07T06:19:41;10.10;;;5.80;;
61617;SDS011;47518;51.776;9.370;2022-12-07T06:22:07;9.43;;;5.20;;
61617;SDS011;47518;51.776;9.370;2022-12-07T06:24:34;9.80;;;5.78;;
61617;SDS011;47518;51.776;9.370;2022-12-07T06:26:59;11.27;;;5.53;;
61617;SDS011;47518;51.776;9.370;2022-12-07T06:29:25;12.13;;;6.05;;
61617;SDS011;47518;51.776;9.370;2022-12-07T06:31:50;10.75;;;6.15;;
61617;SDS011;47518;51.776;9.370;2022-12-07T06:34:17;11.35;;;6.03;;
61617;SDS011;47518;51.776;9.370;2022-12-07T06:36:44;14.90;;;7.38;;
61617;SDS011;47518;51.776;9.370;2022-12-07T06:39:11;14.02;;;7.38;;
61617;SDS011;47518;51.776;9.370;2022-12-07T06:41:37;11.52;;;6.90;;
61617;SDS011;47518;51.776;9.370;2022-12-07T06:44:03;10.60;;;6.45;;
61617;SDS011;47518;51.776;9.370;2022-12-07T06:46:31;11.82;;;6.38;;
61617;SDS011;47518;51.776;9.370;2022-12-07T06:48:57;8.98;;;6.13;;
61617;SDS011;47518;51.776;9.370;2022-12-07T06:51:22;11.07;;;5.85;;
61617;SDS011;47518;51.776;9.370;2022-12-07T06:53:47;10.98;;;5.90;;
61617;SDS011;47518;51.776;9.370;2022-12-07T06:56:13;11.50;;;6.00;;
61617;SDS011;47518;51.776;9.370;2022-12-07T06:58:38;9.65;;;5.78;;
61617;SDS011;47518;51.776;9.370;2022-12-07T07:01:08;9.95;;;5.82;;
61617;SDS011;47518;51.776;9.370;2022-12-07T07:03:37;9.88;;;5.70;;
61617;SDS011;47518;51.776;9.370;2022-12-07T07:06:03;11.55;;;6.00;;
61617;SDS011;47518;51.776;9.370;2022-12-07T07:08:29;9.57;;;5.53;;
61617;SDS011;47518;51.776;9.370;2022-12-07T07:10:54;7.85;;;5.25;;
61617;SDS011;47518;51.776;9.370;2022-12-07T07:13:19;9.80;;;5.45;;
61617;SDS011;47518;51.776;9.370;2022-12-07T07:15:44;12.63;;;5.60;;
61617;SDS011;47518;51.776;9.370;2022-12-07T07:18:10;8.63;;;5.32;;
61617;SDS011;47518;51.776;9.370;2022-12-07T07:20:36;11.35;;;5.32;;
61617;SDS011;47518;51.776;9.370;2022-12-07T07:23:01;11.93;;;5.13;;
61617;SDS011;47518;51.776;9.370;2022-12-07T07:25:28;10.38;;;5.63;;
61617;SDS011;47518;51.776;9.370;2022-12-07T07:27:53;10.75;;;5.43;;
61617;SDS011;47518;51.776;9.370;2022-12-07T07:30:18;7.57;;;5.03;;
61617;SDS011;47518;51.776;9.370;2022-12-07T07:32:44;11.35;;;5.70;;
61617;SDS011;47518;51.776;9.370;2022-12-07T07:35:10;8.73;;;5.38;;
61617;SDS011;47518;51.776;9.370;2022-12-07T07:37:35;10.40;;;5.38;;
61617;SDS011;47518;51.776;9.370;2022-12-07T07:40:01;7.22;;;5.05;;
61617;SDS011;47518;51.776;9.370;2022-12-07T07:42:26;14.68;;;5.50;;
61617;SDS011;47518;51.776;9.370;2022-12-07T07:44:51;11.35;;;4.72;;
61617;SDS011;47518;51.776;9.370;2022-12-07T07:47:16;10.77;;;5.25;;
61617;SDS011;47518;51.776;9.370;2022-12-07T07:49:42;8.55;;;5.55;;
61617;SDS011;47518;51.776;9.370;2022-12-07T07:52:07;7.97;;;5.00;;
61617;SDS011;47518;51.776;9.370;2022-12-07T07:54:32;8.23;;;5.28;;
61617;SDS011;47518;51.776;9.370;2022-12-07T07:56:58;8.32;;;4.88;;
61617;SDS011;47518;51.776;9.370;2022-12-07T07:59:23;9.57;;;6.03;;
61617;SDS011;47518;51.776;9.370;2022-12-07T08:01:49;8.60;;;5.45;;
61617;SDS011;47518;51.776;9.370;2022-12-07T08:04:15;7.68;;;5.28;;
61617;SDS011;47518;51.776;9.370;2022-12-07T08:06:40;10.85;;;5.13;;
61617;SDS011;47518;51.776;9.370;2022-12-07T08:09:07;9.95;;;5.65;;
61617;SDS011;47518;51.776;9.370;2022-12-07T08:11:33;9.82;;;5.40;;
61617;SDS011;47518;51.776;9.370;2022-12-07T08:13:58;12.15;;;5.72;;
61617;SDS011;47518;51.776;9.370;2022-12-07T08:16:23;10.77;;;5.22;;
61617;SDS011;47518;51.776;9.370;2022-12-07T08:18:49;10.45;;;5.43;;
61617;SDS011;47518;51.776;9.370;2022-12-07T08:21:14;9.50;;;5.05;;
61617;SDS011;47518;51.776;9.370;2022-12-07T08:23:40;9.38;;;5.25;;
61617;SDS011;47518;51.776;9.370;2022-12-07T08:26:07;8.95;;;5.15;;
61617;SDS011;47518;51.776;9.370;2022-12-07T08:28:34;8.10;;;4.97;;
61617;SDS011;47518;51.776;9.370;2022-12-07T08:31:00;9.63;;;5.15;;
61617;SDS011;47518;51.776;9.370;2022-12-07T08:33:28;8.40;;;5.10;;
61617;SDS011;47518;51.776;9.370;2022-12-07T08:35:53;10.18;;;5.28;;
61617;SDS011;47518;51.776;9.370;2022-12-07T08:38:19;10.95;;;5.65;;
61617;SDS011;47518;51.776;9.370;2022-12-07T08:40:45;9.18;;;5.60;;
61617;SDS011;47518;51.776;9.370;2022-12-07T08:43:18;9.05;;;5.28;;
61617;SDS011;47518;51.776;9.370;2022-12-07T08:45:43;10.65;;;5.55;;
61617;SDS011;47518;51.776;9.370;2022-12-07T08:48:09;10.05;;;5.72;;
61617;SDS011;47518;51.776;9.370;2022-12-07T08:50:37;9.05;;;5.30;;
61617;SDS011;47518;51.776;9.370;2022-12-07T08:53:03;10.52;;;5.40;;
61617;SDS011;47518;51.776;9.370;2022-12-07T08:55:30;9.63;;;5.30;;
61617;SDS011;47518;51.776;9.370;2022-12-07T08:57:57;7.40;;;5.05;;
61617;SDS011;47518;51.776;9.370;2022-12-07T09:00:23;9.68;;;5.03;;
61617;SDS011;47518;51.776;9.370;2022-12-07T09:02:49;10.02;;;5.22;;
61617;SDS011;47518;51.776;9.370;2022-12-07T09:05:14;5.93;;;4.80;;
61617;SDS011;47518;51.776;9.370;2022-12-07T09:07:40;8.52;;;4.93;;
61617;SDS011;47518;51.776;9.370;2022-12-07T09:10:06;11.10;;;5.07;;
61617;SDS011;47518;51.776;9.370;2022-12-07T09:12:32;9.50;;;4.95;;
61617;SDS011;47518;51.776;9.370;2022-12-07T09:14:57;9.70;;;4.97;;
61617;SDS011;47518;51.776;9.370;2022-12-07T09:17:22;10.13;;;5.47;;
61617;SDS011;47518;51.776;9.370;2022-12-07T09:19:48;11.48;;;4.90;;
61617;SDS011;47518;51.776;9.370;2022-12-07T09:22:13;12.25;;;5.30;;
61617;SDS011;47518;51.776;9.370;2022-12-07T09:24:39;6.80;;;5.15;;
61617;SDS011;47518;51.776;9.370;2022-12-07T09:27:04;12.15;;;4.90;;
61617;SDS011;47518;51.776;9.370;2022-12-07T09:29:29;6.97;;;4.70;;
61617;SDS011;47518;51.776;9.370;2022-12-07T09:31:54;9.32;;;4.78;;
61617;SDS011;47518;51.776;9.370;2022-12-07T09:34:20;10.00;;;4.75;;
61617;SDS011;47518;51.776;9.370;2022-12-07T09:36:46;6.95;;;4.40;;
61617;SDS011;47518;51.776;9.370;2022-12-07T09:39:11;5.97;;;4.60;;
61617;SDS011;47518;51.776;9.370;2022-12-07T09:41:37;9.75;;;5.93;;
61617;SDS011;47518;51.776;9.370;2022-12-07T09:44:05;7.38;;;4.32;;
61617;SDS011;47518;51.776;9.370;2022-12-07T09:46:36;8.00;;;4.63;;
61617;SDS011;47518;51.776;9.370;2022-12-07T09:49:05;11.95;;;4.72;;
61617;SDS011;47518;51.776;9.370;2022-12-07T09:54:02;10.20;;;4.50;;
61617;SDS011;47518;51.776;9.370;2022-12-07T09:56:29;9.00;;;4.80;;
61617;SDS011;47518;51.776;9.370;2022-12-07T09:58:58;9.20;;;4.47;;
61617;SDS011;47518;51.776;9.370;2022-12-07T10:01:27;8.48;;;4.55;;
61617;SDS011;47518;51.776;9.370;2022-12-07T10:03:58;11.10;;;5.00;;
61617;SDS011;47518;51.776;9.370;2022-12-07T10:06:35;10.68;;;4.90;;
61617;SDS011;47518;51.776;9.370;2022-12-07T10:09:00;8.93;;;4.28;;
61617;SDS011;47518;51.776;9.370;2022-12-07T10:11:25;9.23;;;4.15;;
61617;SDS011;47518;51.776;9.370;2022-12-07T10:13:51;8.80;;;4.50;;
61617;SDS011;47518;51.776;9.370;2022-12-07T10:16:30;9.75;;;4.85;;
61617;SDS011;47518;51.776;9.370;2022-12-07T10:19:22;6.72;;;4.13;;
61617;SDS011;47518;51.776;9.370;2022-12-07T10:22:09;9.25;;;4.53;;
61617;SDS011;47518;51.776;9.370;2022-12-07T10:24:37;10.00;;;4.20;;
61617;SDS011;47518;51.776;9.370;2022-12-07T10:27:09;12.30;;;4.47;;
61617;SDS011;47518;51.776;9.370;2022-12-07T10:29:46;8.70;;;4.00;;
61617;SDS011;47518;51.776;9.370;2022-12-07T10:37:44;10.00;;;4.63;;
61617;SDS011;47518;51.776;9.370;2022-12-07T10:40:49;9.05;;;4.65;;
61617;SDS011;47518;51.776;9.370;2022-12-07T10:45:56;7.95;;;4.50;;
61617;SDS011;47518;51.776;9.370;2022-12-07T10:51:37;7.18;;;4.10;;
61617;SDS011;47518;51.776;9.370;2022-12-07T10:56:57;9.02;;;3.78;;
61617;SDS011;47518;51.776;9.370;2022-12-07T10:59:42;6.18;;;3.70;;
61617;SDS011;47518;51.776;9.370;2022-12-07T11:02:27;6.97;;;3.70;;
61617;SDS011;47518;51.776;9.370;2022-12-07T11:05:24;10.43;;;3.85;;
61617;SDS011;47518;51.776;9.370;2022-12-07T11:11:13;8.00;;;4.00;;
61617;SDS011;47518;51.776;9.370;2022-12-07T11:13:48;8.10;;;3.53;;
61617;SDS011;47518;51.776;9.370;2022-12-07T11:16:30;8.15;;;3.80;;
61617;SDS011;47518;51.776;9.370;2022-12-07T11:19:10;6.70;;;4.00;;
61617;SDS011;47518;51.776;9.370;2022-12-07T11:21:53;9.90;;;4.43;;
61617;SDS011;47518;51.776;9.370;2022-12-07T11:30:22;8.73;;;3.85;;
61617;SDS011;47518;51.776;9.370;2022-12-07T11:32:57;11.15;;;3.95;;
61617;SDS011;47518;51.776;9.370;2022-12-07T11:38:36;8.40;;;3.50;;
61617;SDS011;47518;51.776;9.370;2022-12-07T11:41:08;5.00;;;3.30;;
61617;SDS011;47518;51.776;9.370;2022-12-07T11:43:37;6.97;;;3.60;;
61617;SDS011;47518;51.776;9.370;2022-12-07T11:46:15;10.52;;;3.90;;
61617;SDS011;47518;51.776;9.370;2022-12-07T11:48:43;5.93;;;3.30;;
61617;SDS011;47518;51.776;9.370;2022-12-07T11:51:15;5.57;;;3.40;;
61617;SDS011;47518;51.776;9.370;2022-12-07T11:53:45;4.57;;;3.25;;
61617;SDS011;47518;51.776;9.370;2022-12-07T11:56:16;10.75;;;3.50;;
61617;SDS011;47518;51.776;9.370;2022-12-07T11:58:48;5.25;;;3.42;;
61617;SDS011;47518;51.776;9.370;2022-12-07T12:01:39;8.00;;;3.53;;
61617;SDS011;47518;51.776;9.370;2022-12-07T12:07:07;5.30;;;3.25;;
61617;SDS011;47518;51.776;9.370;2022-12-07T12:09:42;7.47;;;3.40;;
61617;SDS011;47518;51.776;9.370;2022-12-07T12:12:28;7.97;;;4.13;;
61617;SDS011;47518;51.776;9.370;2022-12-07T12:15:26;5.07;;;3.20;;
61617;SDS011;47518;51.776;9.370;2022-12-07T12:20:55;9.63;;;4.20;;
61617;SDS011;47518;51.776;9.370;2022-12-07T12:23:35;11.35;;;4.10;;
61617;SDS011;47518;51.776;9.370;2022-12-07T12:26:06;8.20;;;4.30;;
61617;SDS011;47518;51.776;9.370;2022-12-07T12:28:40;11.75;;;5.50;;
61617;SDS011;47518;51.776;9.370;2022-12-07T12:31:16;13.07;;;5.13;;
61617;SDS011;47518;51.776;9.370;2022-12-07T12:33:57;11.90;;;4.57;;
61617;SDS011;47518;51.776;9.370;2022-12-07T12:50:22;12.00;;;3.83;;
61617;SDS011;47518;51.776;9.370;2022-12-07T12:58:31;6.38;;;3.58;;
61617;SDS011;47518;51.776;9.370;2022-12-07T13:04:14;10.25;;;3.72;;
61617;SDS011;47518;51.776;9.370;2022-12-07T13:06:46;7.70;;;3.72;;
61617;SDS011;47518;51.776;9.370;2022-12-07T13:09:20;6.20;;;3.15;;
61617;SDS011;47518;51.776;9.370;2022-12-07T13:11:48;9.60;;;3.47;;
61617;SDS011;47518;51.776;9.370;2022-12-07T13:14:37;11.38;;;4.50;;
61617;SDS011;47518;51.776;9.370;2022-12-07T13:17:09;8.98;;;3.60;;
61617;SDS011;47518;51.776;9.370;2022-12-07T13:25:10;11.63;;;5.33;;
61617;SDS011;47518;51.776;9.370;2022-12-07T13:27:43;14.98;;;5.63;;
61617;SDS011;47518;51.776;9.370;2022-12-07T13:30:18;8.30;;;4.38;;
61617;SDS011;47518;51.776;9.370;2022-12-07T13:32:53;10.50;;;4.47;;
61617;SDS011;47518;51.776;9.370;2022-12-07T13:35:29;7.22;;;4.45;;
61617;SDS011;47518;51.776;9.370;2022-12-07T13:38:16;10.75;;;4.65;;
61617;SDS011;47518;51.776;9.370;2022-12-07T13:41:10;10.77;;;3.92;;
61617;SDS011;47518;51.776;9.370;2022-12-07T13:43:48;6.95;;;3.88;;
61617;SDS011;47518;51.776;9.370;2022-12-07T13:46:19;7.93;;;3.85;;
61617;SDS011;47518;51.776;9.370;2022-12-07T13:48:50;8.40;;;3.53;;
61617;SDS011;47518;51.776;9.370;2022-12-07T13:51:18;7.05;;;3.50;;
61617;SDS011;47518;51.776;9.370;2022-12-07T13:53:47;9.73;;;3.42;;
61617;SDS011;47518;51.776;9.370;2022-12-07T13:56:14;5.90;;;3.50;;
61617;SDS011;47518;51.776;9.370;2022-12-07T13:58:41;7.20;;;3.47;;
61617;SDS011;47518;51.776;9.370;2022-12-07T14:01:06;12.88;;;6.00;;
61617;SDS011;47518;51.776;9.370;2022-12-07T14:03:33;9.15;;;4.47;;
61617;SDS011;47518;51.776;9.370;2022-12-07T14:06:05;5.38;;;3.30;;
61617;SDS011;47518;51.776;9.370;2022-12-07T14:09:08;8.20;;;3.70;;
61617;SDS011;47518;51.776;9.370;2022-12-07T14:11:42;12.25;;;4.00;;
61617;SDS011;47518;51.776;9.370;2022-12-07T14:14:10;9.05;;;4.10;;
61617;SDS011;47518;51.776;9.370;2022-12-07T14:16:40;8.20;;;3.83;;
61617;SDS011;47518;51.776;9.370;2022-12-07T14:19:38;7.15;;;3.80;;
61617;SDS011;47518;51.776;9.370;2022-12-07T14:22:17;13.00;;;3.65;;
61617;SDS011;47518;51.776;9.370;2022-12-07T14:24:45;9.60;;;3.60;;
61617;SDS011;47518;51.776;9.370;2022-12-07T14:27:16;9.40;;;3.67;;
61617;SDS011;47518;51.776;9.370;2022-12-07T14:29:55;7.45;;;3.80;;
61617;SDS011;47518;51.776;9.370;2022-12-07T14:32:25;9.52;;;4.00;;
61617;SDS011;47518;51.776;9.370;2022-12-07T14:34:55;6.20;;;3.30;;
61617;SDS011;47518;51.776;9.370;2022-12-07T14:37:21;9.18;;;4.15;;
61617;SDS011;47518;51.776;9.370;2022-12-07T14:39:46;11.68;;;3.90;;
61617;SDS011;47518;51.776;9.370;2022-12-07T14:42:12;10.18;;;3.92;;
61617;SDS011;47518;51.776;9.370;2022-12-07T14:44:37;9.32;;;4.00;;
61617;SDS011;47518;51.776;9.370;2022-12-07T14:47:02;9.65;;;3.97;;
61617;SDS011;47518;51.776;9.370;2022-12-07T14:49:27;10.38;;;3.75;;
61617;SDS011;47518;51.776;9.370;2022-12-07T14:51:53;8.98;;;4.18;;
61617;SDS011;47518;51.776;9.370;2022-12-07T14:54:19;8.60;;;4.00;;
61617;SDS011;47518;51.776;9.370;2022-12-07T14:56:45;7.25;;;3.35;;
61617;SDS011;47518;51.776;9.370;2022-12-07T14:59:15;7.85;;;4.40;;
61617;SDS011;47518;51.776;9.370;2022-12-07T15:01:41;8.15;;;4.28;;
61617;SDS011;47518;51.776;9.370;2022-12-07T15:04:06;9.57;;;4.25;;
61617;SDS011;47518;51.776;9.370;2022-12-07T15:06:31;8.35;;;3.90;;
61617;SDS011;47518;51.776;9.370;2022-12-07T15:08:57;10.35;;;4.78;;
61617;SDS011;47518;51.776;9.370;2022-12-07T15:11:22;11.50;;;4.82;;
61617;SDS011;47518;51.776;9.370;2022-12-07T15:13:47;7.57;;;4.13;;
61617;SDS011;47518;51.776;9.370;2022-12-07T15:16:32;7.75;;;3.80;;
61617;SDS011;47518;51.776;9.370;2022-12-07T15:18:58;8.60;;;4.43;;
61617;SDS011;47518;51.776;9.370;2022-12-07T15:21:23;9.18;;;4.18;;
61617;SDS011;47518;51.776;9.370;2022-12-07T15:23:49;8.50;;;4.05;;
61617;SDS011;47518;51.776;9.370;2022-12-07T15:26:14;11.57;;;5.10;;
61617;SDS011;47518;51.776;9.370;2022-12-07T15:28:40;8.68;;;4.75;;
61617;SDS011;47518;51.776;9.370;2022-12-07T15:31:14;10.52;;;4.95;;
61617;SDS011;47518;51.776;9.370;2022-12-07T15:33:40;8.07;;;4.30;;
61617;SDS011;47518;51.776;9.370;2022-12-07T15:36:06;7.63;;;4.20;;
61617;SDS011;47518;51.776;9.370;2022-12-07T15:38:31;6.00;;;4.07;;
61617;SDS011;47518;51.776;9.370;2022-12-07T15:40:57;4.38;;;3.42;;
61617;SDS011;47518;51.776;9.370;2022-12-07T15:43:22;5.28;;;3.67;;
61617;SDS011;47518;51.776;9.370;2022-12-07T15:46:07;7.88;;;3.45;;
61617;SDS011;47518;51.776;9.370;2022-12-07T15:48:33;5.40;;;3.20;;
61617;SDS011;47518;51.776;9.370;2022-12-07T15:51:03;8.13;;;3.58;;
61617;SDS011;47518;51.776;9.370;2022-12-07T15:53:29;7.37;;;3.50;;
61617;SDS011;47518;51.776;9.370;2022-12-07T15:55:54;6.38;;;3.78;;
61617;SDS011;47518;51.776;9.370;2022-12-07T15:58:20;6.28;;;3.55;;
61617;SDS011;47518;51.776;9.370;2022-12-07T16:00:45;8.30;;;3.58;;
61617;SDS011;47518;51.776;9.370;2022-12-07T16:03:11;7.75;;;4.93;;
61617;SDS011;47518;51.776;9.370;2022-12-07T16:05:36;10.93;;;5.13;;
61617;SDS011;47518;51.776;9.370;2022-12-07T16:08:01;9.43;;;5.13;;
61617;SDS011;47518;51.776;9.370;2022-12-07T16:10:27;7.68;;;4.25;;
61617;SDS011;47518;51.776;9.370;2022-12-07T16:12:52;6.18;;;4.20;;
61617;SDS011;47518;51.776;9.370;2022-12-07T16:15:17;7.35;;;4.10;;
61617;SDS011;47518;51.776;9.370;2022-12-07T16:17:42;8.63;;;4.03;;
61617;SDS011;47518;51.776;9.370;2022-12-07T16:20:08;7.40;;;3.65;;
61617;SDS011;47518;51.776;9.370;2022-12-07T16:22:34;6.75;;;3.35;;
61617;SDS011;47518;51.776;9.370;2022-12-07T16:24:59;11.13;;;5.20;;
61617;SDS011;47518;51.776;9.370;2022-12-07T16:27:24;12.45;;;4.95;;
61617;SDS011;47518;51.776;9.370;2022-12-07T16:29:49;12.05;;;4.78;;
61617;SDS011;47518;51.776;9.370;2022-12-07T16:32:15;19.35;;;9.02;;
61617;SDS011;47518;51.776;9.370;2022-12-07T16:34:40;24.45;;;8.70;;
61617;SDS011;47518;51.776;9.370;2022-12-07T16:37:05;12.48;;;5.95;;
61617;SDS011;47518;51.776;9.370;2022-12-07T16:39:31;6.35;;;3.83;;